Time;durP1;ratioP1;P1;durP2;ratioP2;P2;SDS_P1;SDS_P2;PMS_P1;PMS_P2;Temp;Humidity;BMP_temperature;BMP_pressure;BME280_temperature;BME280_humidity;BME280_pressure;Samples;Min_cycle;Max_cycle;Signal;HPM_P1;HPM_P2
2022/05/03 00:01:03;;;;;;;23.38;15.60;;;;;;;;;;4997844;28;20038;-80
2022/05/03 00:03:31;;;;;;;25.13;15.73;;;;;;;;;;4980366;28;20060;-80
2022/05/03 00:06:25;;;;;;;23.42;14.60;;;;;;;;;;4997962;28;20022;-81
2022/05/03 00:08:58;;;;;;;25.17;15.48;;;;;;;;;;4979726;28;20046;-83
2022/05/03 00:11:32;;;;;;;21.77;14.85;;;;;;;;;;4988742;28;20174;-84
2022/05/03 00:14:17;;;;;;;21.50;14.10;;;;;;;;;;5017312;28;20041;-84
2022/05/03 00:16:44;;;;;;;20.50;14.35;;;;;;;;;;5017665;28;20417;-82
2022/05/03 00:19:10;;;;;;;21.35;14.70;;;;;;;;;;4983166;28;20102;-82
2022/05/03 00:21:36;;;;;;;21.85;14.63;;;;;;;;;;4999441;28;20030;-82
2022/05/03 00:24:02;;;;;;;21.00;13.77;;;;;;;;;;4999417;28;20014;-79
2022/05/03 00:26:30;;;;;;;21.50;13.63;;;;;;;;;;5017003;28;20030;-79
2022/05/03 00:28:56;;;;;;;22.95;14.35;;;;;;;;;;4999419;28;20075;-79
2022/05/03 00:31:22;;;;;;;21.40;13.80;;;;;;;;;;4999411;28;20030;-79
2022/05/03 00:33:48;;;;;;;20.67;13.45;;;;;;;;;;5016947;28;20096;-81
2022/05/03 00:36:15;;;;;;;21.30;14.02;;;;;;;;;;4999526;28;20030;-81
2022/05/03 00:38:41;;;;;;;21.42;14.60;;;;;;;;;;5016926;28;20026;-81
2022/05/03 00:41:08;;;;;;;21.67;14.75;;;;;;;;;;5016933;28;20034;-80
2022/05/03 00:43:41;;;;;;;22.10;14.05;;;;;;;;;;5016657;28;20014;-79
2022/05/03 00:46:08;;;;;;;24.75;14.73;;;;;;;;;;5016848;28;20045;-81
2022/05/03 00:49:10;;;;;;;20.13;14.35;;;;;;;;;;5016692;28;20021;-80
2022/05/03 00:51:45;;;;;;;24.35;13.35;;;;;;;;;;4999044;28;20505;-80
2022/05/03 00:54:19;;;;;;;22.50;13.63;;;;;;;;;;5016713;28;20386;-80
2022/05/03 00:56:50;;;;;;;20.02;13.82;;;;;;;;;;4999392;28;20026;-80
2022/05/03 00:59:52;;;;;;;19.10;12.48;;;;;;;;;;4999298;28;20033;-81
2022/05/03 01:02:25;;;;;;;22.80;13.48;;;;;;;;;;4956232;29;20027;-80
2022/05/03 01:05:18;;;;;;;20.02;13.15;;;;;;;;;;5006779;28;20036;-79
2022/05/03 01:07:48;;;;;;;23.88;14.05;;;;;;;;;;4993791;28;20068;-78
2022/05/03 01:10:29;;;;;;;21.50;13.43;;;;;;;;;;4997651;28;20034;-78
2022/05/03 01:12:54;;;;;;;22.23;12.75;;;;;;;;;;5016744;28;20375;-78
2022/05/03 01:15:41;;;;;;;20.38;13.50;;;;;;;;;;5016086;28;20045;-78
2022/05/03 01:18:06;;;;;;;19.30;13.25;;;;;;;;;;4999166;28;20508;-83
2022/05/03 01:21:06;;;;;;;19.08;12.73;;;;;;;;;;4998445;28;20018;-84
2022/05/03 01:24:15;;;;;;;20.65;13.50;;;;;;;;;;5016365;28;20025;-84
2022/05/03 01:26:55;;;;;;;14.75;11.20;;;;;;;;;;5009094;28;20038;-82
2022/05/03 01:29:28;;;;;;;16.33;10.82;;;;;;;;;;5016084;28;20101;-81
2022/05/03 01:31:56;;;;;;;15.43;9.98;;;;;;;;;;5015778;28;20096;-79
2022/05/03 01:34:23;;;;;;;16.05;11.15;;;;;;;;;;5016163;28;20030;-78
2022/05/03 01:37:01;;;;;;;16.83;12.13;;;;;;;;;;4998404;28;20022;-76
2022/05/03 01:39:44;;;;;;;14.82;10.23;;;;;;;;;;4998205;28;20044;-76
2022/05/03 01:42:28;;;;;;;14.20;9.45;;;;;;;;;;5015836;28;20029;-81
2022/05/03 01:45:07;;;;;;;41.50;16.40;;;;;;;;;;4998166;28;20490;-81
2022/05/03 01:47:44;;;;;;;18.35;10.02;;;;;;;;;;5014468;28;20364;-81
2022/05/03 01:50:22;;;;;;;10.57;8.40;;;;;;;;;;5015853;28;20049;-80
2022/05/03 01:52:56;;;;;;;25.25;12.45;;;;;;;;;;4998337;28;20041;-79
2022/05/03 01:58:51;;;;;;;20.73;10.85;;;;;;;;;;5015731;28;20038;-80
2022/05/03 02:01:28;;;;;;;11.75;8.95;;;;;;;;;;5014728;28;20034;-83
2022/05/03 02:04:02;;;;;;;14.18;9.73;;;;;;;;;;4997972;28;20026;-82
2022/05/03 02:06:42;;;;;;;17.33;10.93;;;;;;;;;;5013815;28;20026;-82
2022/05/03 02:09:09;;;;;;;20.80;12.80;;;;;;;;;;5015318;28;20061;-82
2022/05/03 02:11:58;;;;;;;22.77;13.20;;;;;;;;;;5013585;28;20052;-82
2022/05/03 02:17:25;;;;;;;20.88;12.35;;;;;;;;;;4995487;28;20034;-82
2022/05/03 02:20:11;;;;;;;16.85;12.18;;;;;;;;;;4995375;28;20483;-82
2022/05/03 02:22:55;;;;;;;18.20;11.75;;;;;;;;;;4993793;28;20022;-82
2022/05/03 02:25:39;;;;;;;15.77;11.75;;;;;;;;;;4977758;28;20395;-82
2022/05/03 02:28:17;;;;;;;12.93;10.05;;;;;;;;;;4995111;28;20034;-82
2022/05/03 02:30:44;;;;;;;15.02;10.48;;;;;;;;;;4995567;28;20038;-82
2022/05/03 02:33:18;;;;;;;12.60;9.90;;;;;;;;;;4995032;28;20034;-87
2022/05/03 02:35:48;;;;;;;12.68;8.88;;;;;;;;;;4977477;28;20038;-87
2022/05/03 02:38:17;;;;;;;11.55;9.32;;;;;;;;;;4993621;28;20034;-85
2022/05/03 02:40:52;;;;;;;10.30;8.55;;;;;;;;;;4994877;28;20050;-85
2022/05/03 02:43:19;;;;;;;12.60;8.93;;;;;;;;;;4961244;28;20037;-84
2022/05/03 02:45:50;;;;;;;13.20;9.40;;;;;;;;;;4977821;28;20046;-84
2022/05/03 02:48:23;;;;;;;10.70;8.70;;;;;;;;;;4993345;28;20042;-85
2022/05/03 02:50:48;;;;;;;13.10;9.63;;;;;;;;;;4994962;28;20045;-82
2022/05/03 02:56:22;;;;;;;11.88;9.02;;;;;;;;;;4995149;28;20277;-78
2022/05/03 02:58:54;;;;;;;10.20;8.80;;;;;;;;;;4994621;28;20035;-78
2022/05/03 03:04:14;;;;;;;14.23;9.38;;;;;;;;;;4994792;28;20046;-79
2022/05/03 03:06:41;;;;;;;12.90;9.15;;;;;;;;;;4994765;28;20113;-79
2022/05/03 03:09:07;;;;;;;12.15;10.18;;;;;;;;;;4977267;28;20590;-79
2022/05/03 03:11:40;;;;;;;14.02;9.77;;;;;;;;;;4977150;28;20061;-79
2022/05/03 03:14:24;;;;;;;10.70;8.93;;;;;;;;;;4976866;28;20447;-79
2022/05/03 03:16:54;;;;;;;12.38;9.40;;;;;;;;;;4994753;28;20172;-78
2022/05/03 03:19:34;;;;;;;10.90;9.45;;;;;;;;;;4977114;28;20454;-78
2022/05/03 03:22:00;;;;;;;11.38;8.57;;;;;;;;;;4976986;28;20027;-78
2022/05/03 03:24:27;;;;;;;10.60;8.73;;;;;;;;;;4976745;28;20061;-77
2022/05/03 03:26:52;;;;;;;14.57;9.30;;;;;;;;;;4977182;28;20034;-83
2022/05/03 03:29:19;;;;;;;23.23;12.45;;;;;;;;;;4994493;28;20026;-83
2022/05/03 03:31:46;;;;;;;16.60;11.15;;;;;;;;;;4977123;28;20038;-83
2022/05/03 03:34:11;;;;;;;16.27;10.70;;;;;;;;;;4976262;28;20156;-83
2022/05/03 03:36:37;;;;;;;14.35;10.27;;;;;;;;;;4994431;28;20095;-82
2022/05/03 03:39:02;;;;;;;17.35;10.75;;;;;;;;;;4994051;28;20105;-82
2022/05/03 03:41:28;;;;;;;19.83;11.25;;;;;;;;;;4994050;28;20367;-79
2022/05/03 03:43:53;;;;;;;13.13;9.90;;;;;;;;;;4994402;28;20356;-78
2022/05/03 03:46:19;;;;;;;13.93;8.85;;;;;;;;;;4994537;28;20451;-78
2022/05/03 03:48:45;;;;;;;16.13;10.00;;;;;;;;;;4992773;28;20026;-78
2022/05/03 03:51:12;;;;;;;15.05;10.13;;;;;;;;;;4994598;28;20030;-78
2022/05/03 03:53:37;;;;;;;12.68;10.20;;;;;;;;;;4994293;28;20447;-78
2022/05/03 03:56:03;;;;;;;15.30;10.77;;;;;;;;;;4994308;28;20085;-78
2022/05/03 03:58:29;;;;;;;16.88;11.52;;;;;;;;;;4993872;28;20482;-82
2022/05/03 04:00:55;;;;;;;13.98;11.30;;;;;;;;;;4994139;28;20022;-82
2022/05/03 04:03:21;;;;;;;16.08;11.88;;;;;;;;;;4992729;28;20113;-79
2022/05/03 04:05:46;;;;;;;16.77;11.45;;;;;;;;;;4994155;28;20174;-78
2022/05/03 04:08:33;;;;;;;18.13;11.27;;;;;;;;;;4994077;28;20479;-87
2022/05/03 04:11:26;;;;;;;15.32;10.85;;;;;;;;;;4977060;28;20041;-86
2022/05/03 04:13:52;;;;;;;17.88;11.15;;;;;;;;;;5010669;28;20402;-84
2022/05/03 04:16:24;;;;;;;13.90;9.23;;;;;;;;;;5013562;28;20034;-83
2022/05/03 04:18:50;;;;;;;20.90;13.40;;;;;;;;;;4996153;28;20037;-81
2022/05/03 04:21:17;;;;;;;21.13;15.23;;;;;;;;;;5013636;28;20018;-81
2022/05/03 04:26:46;;;;;;;18.17;13.95;;;;;;;;;;5013827;28;20041;-83
2022/05/03 04:29:11;;;;;;;18.65;13.35;;;;;;;;;;5014271;28;20014;-84
2022/05/03 04:31:43;;;;;;;19.55;13.65;;;;;;;;;;5013178;28;20482;-84
2022/05/03 04:34:09;;;;;;;16.77;11.93;;;;;;;;;;5013321;28;20080;-84
2022/05/03 04:36:49;;;;;;;11.80;9.35;;;;;;;;;;5013483;28;20025;-81
2022/05/03 04:39:15;;;;;;;10.18;8.50;;;;;;;;;;4995769;28;20041;-78
2022/05/03 04:41:43;;;;;;;11.98;9.13;;;;;;;;;;5013607;28;20029;-79
2022/05/03 04:44:08;;;;;;;12.30;9.40;;;;;;;;;;5013574;28;20392;-78
2022/05/03 04:46:37;;;;;;;14.13;10.00;;;;;;;;;;5015237;28;20021;-80
2022/05/03 04:49:02;;;;;;;12.43;9.25;;;;;;;;;;5016610;28;20111;-80
2022/05/03 04:51:34;;;;;;;12.47;9.30;;;;;;;;;;5016523;28;20084;-80
2022/05/03 04:54:00;;;;;;;15.07;9.57;;;;;;;;;;5015228;28;20280;-81
2022/05/03 04:56:26;;;;;;;12.97;9.63;;;;;;;;;;4998883;28;20030;-81
2022/05/03 04:58:55;;;;;;;14.63;9.75;;;;;;;;;;5016500;28;20289;-81
2022/05/03 05:01:20;;;;;;;16.25;9.63;;;;;;;;;;5016898;28;20018;-81
2022/05/03 05:03:50;;;;;;;15.20;10.20;;;;;;;;;;4998690;28;20461;-83
2022/05/03 05:06:15;;;;;;;12.57;9.80;;;;;;;;;;5016430;28;20083;-80
2022/05/03 05:08:43;;;;;;;17.25;10.73;;;;;;;;;;5016278;28;20022;-85
2022/05/03 05:11:09;;;;;;;12.45;10.32;;;;;;;;;;5016465;28;20033;-80
2022/05/03 05:13:34;;;;;;;11.75;9.45;;;;;;;;;;5009489;28;20057;-83
2022/05/03 05:16:00;;;;;;;9.27;8.32;;;;;;;;;;4996785;28;20026;-82
2022/05/03 05:18:26;;;;;;;10.70;8.90;;;;;;;;;;4996628;28;20038;-81
2022/05/03 05:20:51;;;;;;;9.60;8.55;;;;;;;;;;5015777;28;20022;-80
2022/05/03 05:23:16;;;;;;;11.00;9.00;;;;;;;;;;5016153;28;20577;-80
2022/05/03 05:25:42;;;;;;;12.63;8.75;;;;;;;;;;5014890;28;20025;-80
2022/05/03 05:28:07;;;;;;;10.63;8.70;;;;;;;;;;5016159;28;20053;-80
2022/05/03 05:30:33;;;;;;;10.57;9.07;;;;;;;;;;4998222;28;20558;-78
2022/05/03 05:32:58;;;;;;;10.63;7.97;;;;;;;;;;4998333;28;20026;-78
2022/05/03 05:35:23;;;;;;;10.43;8.02;;;;;;;;;;4998847;28;20041;-78
2022/05/03 05:37:49;;;;;;;10.75;8.30;;;;;;;;;;5015934;28;20029;-78
2022/05/03 05:40:15;;;;;;;13.13;9.43;;;;;;;;;;5015687;28;20030;-79
2022/05/03 05:42:42;;;;;;;17.92;11.30;;;;;;;;;;5016003;28;20050;-78
2022/05/03 05:45:07;;;;;;;21.65;12.52;;;;;;;;;;5014969;28;20022;-78
2022/05/03 05:47:34;;;;;;;24.73;13.32;;;;;;;;;;5015789;28;20434;-78
2022/05/03 05:49:59;;;;;;;19.92;11.48;;;;;;;;;;5015638;28;20033;-78
2022/05/03 05:55:09;;;;;;;28.73;15.20;;;;;;;;;;5015584;28;20034;-78
2022/05/03 05:57:35;;;;;;;22.45;13.02;;;;;;;;;;5015346;28;20034;-79
2022/05/03 06:00:00;;;;;;;27.95;14.20;;;;;;;;;;4997661;28;20080;-79
2022/05/03 06:02:26;;;;;;;29.25;14.70;;;;;;;;;;5015496;28;20018;-79
2022/05/03 06:04:51;;;;;;;34.22;17.25;;;;;;;;;;5014893;28;20026;-79
2022/05/03 06:07:17;;;;;;;34.85;18.08;;;;;;;;;;5014338;28;20410;-80
2022/05/03 06:09:43;;;;;;;30.17;17.20;;;;;;;;;;5014931;28;20482;-80
2022/05/03 06:12:09;;;;;;;28.25;16.63;;;;;;;;;;5014906;28;20381;-85
2022/05/03 06:14:40;;;;;;;30.20;17.10;;;;;;;;;;4997063;28;20050;-85
2022/05/03 06:17:06;;;;;;;30.05;17.40;;;;;;;;;;5015194;28;20033;-85
2022/05/03 06:19:32;;;;;;;26.88;17.73;;;;;;;;;;5014818;28;20382;-84
2022/05/03 06:21:57;;;;;;;33.42;18.50;;;;;;;;;;5015138;28;20374;-84
2022/05/03 06:24:23;;;;;;;30.25;19.08;;;;;;;;;;5014832;28;20018;-80
2022/05/03 06:26:56;;;;;;;27.50;18.30;;;;;;;;;;5014767;28;20030;-80
2022/05/03 06:29:21;;;;;;;31.95;20.30;;;;;;;;;;5014799;28;20416;-79
2022/05/03 06:31:48;;;;;;;29.67;18.30;;;;;;;;;;5014660;28;20030;-77
2022/05/03 06:34:14;;;;;;;27.83;17.50;;;;;;;;;;5014826;28;20737;-79
2022/05/03 06:36:39;;;;;;;24.23;17.60;;;;;;;;;;5014889;28;20021;-76
2022/05/03 06:39:06;;;;;;;23.40;16.25;;;;;;;;;;5014722;28;20145;-81
2022/05/03 06:41:36;;;;;;;23.95;15.68;;;;;;;;;;5014654;28;20018;-78
2022/05/03 06:44:01;;;;;;;;;;;;;;;;;;4997239;28;20394;-78
2022/05/03 06:46:27;;;;;;;21.90;14.80;;;;;;;;;;4996831;28;19905;-77
2022/05/03 06:49:10;;;;;;;19.50;14.10;;;;;;;;;;5014717;28;20053;-80
2022/05/03 06:51:36;;;;;;;24.15;13.98;;;;;;;;;;5014725;28;20052;-76
2022/05/03 06:54:02;;;;;;;21.40;12.95;;;;;;;;;;4995984;28;20370;-76
2022/05/03 06:56:27;;;;;;;23.13;17.15;;;;;;;;;;5013152;28;20030;-76
2022/05/03 06:58:53;;;;;;;26.08;17.55;;;;;;;;;;4995458;28;20018;-76
2022/05/03 07:01:18;;;;;;;25.00;17.25;;;;;;;;;;5013054;28;20470;-76
2022/05/03 07:03:43;;;;;;;18.33;11.80;;;;;;;;;;4979254;28;20070;-77
2022/05/03 07:06:09;;;;;;;16.05;11.52;;;;;;;;;;5012772;28;20363;-76
2022/05/03 07:08:35;;;;;;;14.35;9.40;;;;;;;;;;5011414;28;20053;-76
2022/05/03 07:11:00;;;;;;;16.20;11.55;;;;;;;;;;5011395;28;20026;-76
2022/05/03 07:13:25;;;;;;;17.98;12.10;;;;;;;;;;5012685;28;20415;-76
2022/05/03 07:15:51;;;;;;;23.10;14.70;;;;;;;;;;5012495;28;20030;-77
2022/05/03 07:23:46;;;;;;;20.25;15.05;;;;;;;;;;5012237;28;20030;-77
2022/05/03 07:26:12;;;;;;;18.70;13.10;;;;;;;;;;4995167;28;20037;-76
2022/05/03 07:28:37;;;;;;;18.83;13.32;;;;;;;;;;5012043;28;20478;-76
2022/05/03 07:31:02;;;;;;;17.33;12.32;;;;;;;;;;5012569;28;20154;-77
2022/05/03 07:33:28;;;;;;;21.90;12.98;;;;;;;;;;5012491;28;20065;-77
2022/05/03 07:35:53;;;;;;;17.35;12.77;;;;;;;;;;5012231;28;20054;-77
2022/05/03 07:38:19;;;;;;;14.85;10.55;;;;;;;;;;5012378;28;20026;-77
2022/05/03 07:40:44;;;;;;;14.13;9.52;;;;;;;;;;4994828;28;20022;-76
2022/05/03 07:43:09;;;;;;;15.10;10.02;;;;;;;;;;5012347;28;20026;-76
2022/05/03 07:45:35;;;;;;;16.10;10.93;;;;;;;;;;4994894;28;20381;-77
2022/05/03 07:48:00;;;;;;;11.57;9.48;;;;;;;;;;5012094;28;20037;-76
2022/05/03 07:50:26;;;;;;;16.52;9.65;;;;;;;;;;5012217;28;20488;-76
2022/05/03 07:52:51;;;;;;;14.48;9.50;;;;;;;;;;5012500;28;20342;-76
2022/05/03 07:55:17;;;;;;;12.57;8.68;;;;;;;;;;5012285;28;20030;-77
2022/05/03 07:57:43;;;;;;;9.63;7.93;;;;;;;;;;5012009;28;20164;-75
2022/05/03 08:00:08;;;;;;;12.30;9.20;;;;;;;;;;5012231;28;20093;-75
2022/05/03 08:02:34;;;;;;;14.43;8.57;;;;;;;;;;5012165;28;20100;-75
2022/05/03 08:04:59;;;;;;;9.25;6.85;;;;;;;;;;4994593;28;20103;-75
2022/05/03 08:07:24;;;;;;;11.38;7.00;;;;;;;;;;5012220;28;20497;-76
2022/05/03 08:09:50;;;;;;;10.65;7.10;;;;;;;;;;5010533;28;20065;-76
2022/05/03 08:12:16;;;;;;;9.63;7.13;;;;;;;;;;5012146;28;20125;-76
2022/05/03 08:14:41;;;;;;;9.50;6.68;;;;;;;;;;5012465;28;20046;-77
2022/05/03 08:17:07;;;;;;;11.00;7.05;;;;;;;;;;5011717;28;20359;-76
2022/05/03 08:19:32;;;;;;;6.63;5.80;;;;;;;;;;5012746;28;20022;-76
2022/05/03 08:21:58;;;;;;;7.60;5.65;;;;;;;;;;4998380;28;20038;-76
2022/05/03 08:24:24;;;;;;;5.47;4.95;;;;;;;;;;5015664;28;20052;-76
2022/05/03 08:26:49;;;;;;;7.93;5.10;;;;;;;;;;5015723;28;20030;-76
2022/05/03 08:29:15;;;;;;;5.82;5.32;;;;;;;;;;5015584;28;20034;-77
2022/05/03 08:31:41;;;;;;;11.45;5.38;;;;;;;;;;5015666;28;20029;-76
2022/05/03 08:34:06;;;;;;;5.78;5.05;;;;;;;;;;5015725;28;20489;-76
2022/05/03 08:36:32;;;;;;;5.70;5.10;;;;;;;;;;5015568;28;20033;-76
2022/05/03 08:44:27;;;;;;;5.30;4.80;;;;;;;;;;5015219;28;20393;-76
2022/05/03 08:46:53;;;;;;;5.32;4.82;;;;;;;;;;4997819;28;20026;-76
2022/05/03 08:49:20;;;;;;;6.03;4.95;;;;;;;;;;5015297;28;20062;-76
2022/05/03 08:51:46;;;;;;;8.77;5.38;;;;;;;;;;5015138;28;20037;-76
2022/05/03 08:54:12;;;;;;;7.20;5.22;;;;;;;;;;4997836;28;20492;-76
2022/05/03 08:56:38;;;;;;;8.80;5.45;;;;;;;;;;5015310;28;20013;-76
2022/05/03 08:59:03;;;;;;;7.57;5.80;;;;;;;;;;5014702;28;20065;-75
2022/05/03 09:01:29;;;;;;;7.47;4.75;;;;;;;;;;5015329;28;20021;-75
2022/05/03 09:03:55;;;;;;;7.93;4.93;;;;;;;;;;5015400;28;20052;-76
2022/05/03 09:06:40;;;;;;;4.85;4.35;;;;;;;;;;5015528;28;20053;-76
2022/05/03 09:09:08;;;;;;;5.53;5.00;;;;;;;;;;5015154;28;20022;-76
2022/05/03 09:11:41;;;;;;;5.28;3.83;;;;;;;;;;4997039;28;20021;-76
2022/05/03 09:14:10;;;;;;;5.68;5.10;;;;;;;;;;5013474;28;20046;-76
2022/05/03 09:16:46;;;;;;;7.38;5.47;;;;;;;;;;5014975;28;20083;-76
2022/05/03 09:19:21;;;;;;;8.77;5.85;;;;;;;;;;5012596;28;20120;-76
2022/05/03 09:24:49;;;;;;;7.22;6.50;;;;;;;;;;5014720;28;20037;-75
2022/05/03 09:27:18;;;;;;;7.05;5.50;;;;;;;;;;5014565;28;20029;-76
2022/05/03 09:29:59;;;;;;;7.13;5.18;;;;;;;;;;5013411;28;20529;-75
2022/05/03 09:32:34;;;;;;;6.95;5.10;;;;;;;;;;5000581;28;20037;-76
2022/05/03 09:35:00;;;;;;;6.43;4.78;;;;;;;;;;5013650;28;20027;-76
2022/05/03 09:37:37;;;;;;;8.98;5.95;;;;;;;;;;4995319;28;20082;-76
2022/05/03 09:40:03;;;;;;;8.45;6.15;;;;;;;;;;5015018;28;20034;-76
2022/05/03 09:42:29;;;;;;;6.20;5.70;;;;;;;;;;5015757;28;20105;-76
2022/05/03 09:44:57;;;;;;;8.20;6.00;;;;;;;;;;5015635;28;20467;-76
2022/05/03 09:47:25;;;;;;;8.45;5.93;;;;;;;;;;5015634;28;20486;-76
2022/05/03 09:49:50;;;;;;;6.30;5.70;;;;;;;;;;5015458;28;20038;-76
2022/05/03 09:52:27;;;;;;;7.25;5.47;;;;;;;;;;5015471;28;20378;-75
2022/05/03 09:54:59;;;;;;;6.40;5.80;;;;;;;;;;4997944;28;20359;-76
2022/05/03 09:57:26;;;;;;;9.13;5.65;;;;;;;;;;4997842;28;20025;-76
2022/05/03 09:59:52;;;;;;;5.75;5.25;;;;;;;;;;5015419;28;20076;-76
2022/05/03 10:02:19;;;;;;;6.68;5.60;;;;;;;;;;4997482;28;20026;-75
2022/05/03 10:04:45;;;;;;;11.00;5.82;;;;;;;;;;5015323;28;20018;-76
2022/05/03 10:07:11;;;;;;;7.63;6.28;;;;;;;;;;5015090;28;20026;-76
2022/05/03 10:09:37;;;;;;;8.45;6.47;;;;;;;;;;5015158;28;20048;-76
2022/05/03 10:12:04;;;;;;;11.65;7.22;;;;;;;;;;5015172;28;20482;-76
2022/05/03 10:14:29;;;;;;;7.35;5.80;;;;;;;;;;5002531;28;20125;-76
2022/05/03 10:22:31;;;;;;;11.10;6.47;;;;;;;;;;4995340;28;20560;-75
2022/05/03 10:24:57;;;;;;;6.85;5.70;;;;;;;;;;4977656;28;20033;-71
2022/05/03 10:27:24;;;;;;;7.63;5.43;;;;;;;;;;4977599;28;20046;-71
2022/05/03 10:30:08;;;;;;;8.30;6.05;;;;;;;;;;4977201;28;20018;-71
2022/05/03 10:32:34;;;;;;;6.07;5.13;;;;;;;;;;4993972;28;20434;-74
2022/05/03 10:34:59;;;;;;;6.78;5.38;;;;;;;;;;4993637;28;20089;-74
2022/05/03 10:37:36;;;;;;;7.30;5.22;;;;;;;;;;4975986;28;20387;-74
2022/05/03 10:40:01;;;;;;;7.82;4.80;;;;;;;;;;4976258;28;20105;-74
2022/05/03 10:42:27;;;;;;;8.88;6.05;;;;;;;;;;4993715;28;20593;-74
2022/05/03 10:44:53;;;;;;;6.03;5.20;;;;;;;;;;4992779;28;20036;-75
2022/05/03 10:47:19;;;;;;;6.30;5.40;;;;;;;;;;4975923;28;20378;-76
2022/05/03 10:50:04;;;;;;;7.85;6.55;;;;;;;;;;4993531;28;20120;-75
2022/05/03 10:52:29;;;;;;;5.82;5.07;;;;;;;;;;4993751;28;20034;-76
2022/05/03 10:55:05;;;;;;;6.28;4.57;;;;;;;;;;4994449;28;20094;-75
2022/05/03 10:57:30;;;;;;;7.72;5.18;;;;;;;;;;4994887;28;20096;-75
2022/05/03 10:59:56;;;;;;;8.07;5.70;;;;;;;;;;4994353;28;20526;-76
2022/05/03 11:02:22;;;;;;;9.68;6.60;;;;;;;;;;4995001;28;20022;-76
2022/05/03 11:05:14;;;;;;;6.43;5.50;;;;;;;;;;4994663;28;20026;-76
2022/05/03 11:07:39;;;;;;;10.75;7.78;;;;;;;;;;4994604;28;20037;-76
2022/05/03 11:10:40;;;;;;;5.68;5.22;;;;;;;;;;4994581;28;20458;-76
2022/05/03 11:13:27;;;;;;;5.60;5.10;;;;;;;;;;4912297;29;20044;-76
2022/05/03 11:16:15;;;;;;;5.38;4.15;;;;;;;;;;5007561;28;20048;-76
2022/05/03 11:18:42;;;;;;;5.55;4.90;;;;;;;;;;5000281;28;20077;-76
2022/05/03 11:21:16;;;;;;;5.20;4.70;;;;;;;;;;5011949;28;20029;-76
2022/05/03 11:23:48;;;;;;;4.75;4.30;;;;;;;;;;5011820;28;20033;-76
2022/05/03 11:26:15;;;;;;;6.32;5.07;;;;;;;;;;5011894;28;20026;-76
2022/05/03 11:28:40;;;;;;;7.35;5.30;;;;;;;;;;5012135;28;20022;-76
2022/05/03 11:31:06;;;;;;;5.38;4.88;;;;;;;;;;5011818;28;20560;-76
2022/05/03 11:33:46;;;;;;;5.53;5.07;;;;;;;;;;5010795;28;20029;-76
2022/05/03 11:36:12;;;;;;;8.27;5.63;;;;;;;;;;5012766;28;20038;-76
2022/05/03 11:38:37;;;;;;;4.30;4.00;;;;;;;;;;5012407;28;20028;-76
2022/05/03 11:41:04;;;;;;;6.22;4.90;;;;;;;;;;5013934;28;20371;-76
2022/05/03 11:43:33;;;;;;;6.80;5.88;;;;;;;;;;5013907;28;20018;-76
2022/05/03 11:45:58;;;;;;;4.68;4.25;;;;;;;;;;5013741;28;20025;-75
2022/05/03 11:48:25;;;;;;;5.70;5.07;;;;;;;;;;5013673;28;20022;-75
2022/05/03 11:56:24;;;;;;;5.57;5.07;;;;;;;;;;5017339;28;20130;-76
2022/05/03 11:58:50;;;;;;;4.32;3.88;;;;;;;;;;5016389;28;20084;-76
2022/05/03 12:01:16;;;;;;;5.55;5.05;;;;;;;;;;5017625;28;20037;-76
2022/05/03 12:03:44;;;;;;;6.28;5.68;;;;;;;;;;5017488;28;20022;-76
2022/05/03 12:06:09;;;;;;;6.57;5.70;;;;;;;;;;5017397;28;20106;-75
2022/05/03 12:08:35;;;;;;;5.93;5.43;;;;;;;;;;5017384;28;20482;-76
2022/05/03 12:11:00;;;;;;;4.20;3.88;;;;;;;;;;5017357;28;20033;-76
2022/05/03 12:13:30;;;;;;;6.32;5.60;;;;;;;;;;5015765;28;20112;-76
2022/05/03 12:15:58;;;;;;;6.40;5.78;;;;;;;;;;5017242;28;20109;-76
2022/05/03 12:18:31;;;;;;;5.57;5.00;;;;;;;;;;4999492;28;20096;-76
2022/05/03 12:20:57;;;;;;;5.93;5.32;;;;;;;;;;4999472;28;20092;-76
2022/05/03 12:23:23;;;;;;;5.10;4.70;;;;;;;;;;5017189;28;20049;-76
2022/05/03 12:25:58;;;;;;;5.20;4.70;;;;;;;;;;5017085;28;20018;-76
2022/05/03 12:28:45;;;;;;;7.28;5.35;;;;;;;;;;4999442;28;20473;-76
2022/05/03 12:31:12;;;;;;;5.68;5.10;;;;;;;;;;4999319;28;20030;-76
2022/05/03 12:33:41;;;;;;;5.53;4.40;;;;;;;;;;5016894;28;20021;-76
2022/05/03 12:36:08;;;;;;;6.22;5.10;;;;;;;;;;5016852;28;20397;-76
2022/05/03 12:38:33;;;;;;;4.97;4.43;;;;;;;;;;5016750;28;20024;-76
2022/05/03 12:40:59;;;;;;;4.55;4.20;;;;;;;;;;5016424;28;20096;-76
2022/05/03 12:43:28;;;;;;;4.53;4.15;;;;;;;;;;5016660;28;20018;-76
2022/05/03 12:45:58;;;;;;;6.05;5.40;;;;;;;;;;5016624;28;20489;-75
2022/05/03 12:48:23;;;;;;;5.05;4.72;;;;;;;;;;5016648;28;20053;-75
2022/05/03 12:50:49;;;;;;;4.38;3.97;;;;;;;;;;4999257;28;20116;-76
2022/05/03 12:53:14;;;;;;;4.65;4.25;;;;;;;;;;5017034;28;20389;-75
2022/05/03 12:55:39;;;;;;;4.80;4.50;;;;;;;;;;5016873;28;20030;-75
2022/05/03 12:58:24;;;;;;;6.55;4.70;;;;;;;;;;5016782;28;20120;-75
2022/05/03 13:00:50;;;;;;;9.15;6.70;;;;;;;;;;5016590;28;20032;-75
2022/05/03 13:03:15;;;;;;;4.82;4.50;;;;;;;;;;4999002;28;20025;-75
2022/05/03 13:05:41;;;;;;;6.03;5.28;;;;;;;;;;5015671;28;20042;-75
2022/05/03 13:08:06;;;;;;;5.07;4.68;;;;;;;;;;5015634;28;20060;-76
2022/05/03 13:10:33;;;;;;;11.30;6.30;;;;;;;;;;5016903;28;20033;-75
2022/05/03 13:12:59;;;;;;;4.95;4.47;;;;;;;;;;5016305;28;20117;-75
2022/05/03 13:15:25;;;;;;;4.70;4.40;;;;;;;;;;5015487;28;20049;-75
2022/05/03 13:17:50;;;;;;;6.05;4.85;;;;;;;;;;5000650;28;20033;-75
2022/05/03 13:20:15;;;;;;;5.07;4.57;;;;;;;;;;5014980;28;20029;-75
2022/05/03 13:22:41;;;;;;;5.60;3.73;;;;;;;;;;5014956;28;20030;-75
2022/05/03 13:25:06;;;;;;;3.97;3.67;;;;;;;;;;5013977;28;20277;-75
2022/05/03 13:27:32;;;;;;;5.63;4.63;;;;;;;;;;5028398;28;20094;-75
2022/05/03 13:29:57;;;;;;;4.95;4.45;;;;;;;;;;5033532;28;20537;-75
2022/05/03 13:32:22;;;;;;;6.47;4.40;;;;;;;;;;5033573;28;20044;-75
2022/05/03 13:34:47;;;;;;;5.32;3.85;;;;;;;;;;5033668;28;20260;-75
2022/05/03 13:42:41;;;;;;;4.75;3.88;;;;;;;;;;5034379;28;20034;-75
2022/05/03 13:45:06;;;;;;;6.72;4.35;;;;;;;;;;5035476;28;20020;-75
2022/05/03 13:47:32;;;;;;;4.80;4.05;;;;;;;;;;5035269;28;20116;-75
2022/05/03 13:49:57;;;;;;;4.30;4.00;;;;;;;;;;5035383;28;20100;-75
2022/05/03 13:52:24;;;;;;;5.63;4.60;;;;;;;;;;5035256;28;20032;-75
2022/05/03 13:54:49;;;;;;;4.45;4.05;;;;;;;;;;5035199;28;20013;-75
2022/05/03 13:57:15;;;;;;;4.68;3.92;;;;;;;;;;5017339;28;20035;-75
2022/05/03 13:59:40;;;;;;;6.70;4.63;;;;;;;;;;5034961;28;20025;-75
2022/05/03 14:02:06;;;;;;;7.63;4.63;;;;;;;;;;5035008;28;20393;-75
2022/05/03 14:04:32;;;;;;;4.50;4.10;;;;;;;;;;5034885;28;20064;-75
2022/05/03 14:06:57;;;;;;;5.15;4.32;;;;;;;;;;5034927;28;20029;-75
2022/05/03 14:09:23;;;;;;;5.88;4.35;;;;;;;;;;5034862;28;20026;-75
2022/05/03 14:11:49;;;;;;;5.13;4.13;;;;;;;;;;5034862;28;20049;-75
2022/05/03 14:14:14;;;;;;;4.63;3.95;;;;;;;;;;5034538;28;20048;-75
2022/05/03 14:16:40;;;;;;;5.45;4.00;;;;;;;;;;5034589;28;20033;-75
2022/05/03 14:19:05;;;;;;;5.00;4.57;;;;;;;;;;5016521;28;20033;-75
2022/05/03 14:21:31;;;;;;;6.70;4.43;;;;;;;;;;5034923;28;20029;-75
2022/05/03 14:23:56;;;;;;;4.55;4.10;;;;;;;;;;5034871;28;20017;-75
2022/05/03 14:26:22;;;;;;;4.63;4.22;;;;;;;;;;5035211;28;20033;-75
2022/05/03 14:28:49;;;;;;;5.15;4.35;;;;;;;;;;5034975;28;20079;-76
2022/05/03 14:31:15;;;;;;;4.38;3.97;;;;;;;;;;5034955;28;20064;-75
2022/05/03 14:33:40;;;;;;;4.10;3.72;;;;;;;;;;5034484;28;20107;-75
2022/05/03 14:36:07;;;;;;;5.30;3.78;;;;;;;;;;5034602;28;20034;-75
2022/05/03 14:38:32;;;;;;;3.63;3.42;;;;;;;;;;5034597;28;20025;-75
2022/05/03 14:40:57;;;;;;;5.07;3.78;;;;;;;;;;5034948;28;20032;-75
2022/05/03 14:43:23;;;;;;;4.38;4.07;;;;;;;;;;5034636;28;20052;-75
2022/05/03 14:45:49;;;;;;;5.28;3.90;;;;;;;;;;5034625;28;20022;-75
2022/05/03 14:48:14;;;;;;;4.57;3.53;;;;;;;;;;5034793;28;20528;-75
2022/05/03 14:50:40;;;;;;;4.40;3.35;;;;;;;;;;5034691;28;20060;-75
2022/05/03 14:53:13;;;;;;;5.10;3.70;;;;;;;;;;5032752;28;20041;-75
2022/05/03 15:02:52;;;;;;;4.75;4.35;;;;;;;;;;4998403;28;20063;-75
2022/05/03 15:03:58;;;;;;;5.30;4.80;;;;;;;;;;5034279;28;20041;-75
2022/05/03 15:06:23;;;;;;;4.10;3.70;;;;;;;;;;5016337;28;20018;-75
2022/05/03 15:08:51;;;;;;;3.70;3.50;;;;;;;;;;5034555;28;20079;-75
2022/05/03 15:11:16;;;;;;;4.72;4.30;;;;;;;;;;5034480;28;20041;-75
2022/05/03 15:13:41;;;;;;;3.47;3.28;;;;;;;;;;5034060;28;20057;-75
2022/05/03 15:16:07;;;;;;;5.05;3.78;;;;;;;;;;5034449;28;20063;-75
2022/05/03 15:18:37;;;;;;;4.35;3.92;;;;;;;;;;5033826;28;20037;-75
2022/05/03 15:21:02;;;;;;;3.08;2.72;;;;;;;;;;5034348;28;20025;-75
2022/05/03 15:26:12;;;;;;;4.47;4.00;;;;;;;;;;5034245;28;20045;-75
2022/05/03 15:28:38;;;;;;;4.20;3.90;;;;;;;;;;5033817;28;20021;-75
2022/05/03 15:31:04;;;;;;;3.88;3.55;;;;;;;;;;5033423;28;20386;-75
2022/05/03 15:33:29;;;;;;;4.20;3.50;;;;;;;;;;5034192;28;20025;-75
2022/05/03 15:35:55;;;;;;;4.55;3.65;;;;;;;;;;5016158;28;20363;-75
2022/05/03 15:38:20;;;;;;;3.95;3.65;;;;;;;;;;5033759;28;20465;-75